sensor_id;sensor_type;location;lat;lon;timestamp;pressure;altitude;pressure_sealevel;temperature;humidity
17521;BME280;8878;-33.370;-70.552;2023-05-08T00:02:21;92289.13;;;17.24;38.76
17521;BME280;8878;-33.370;-70.552;2023-05-08T00:04:51;92278.81;;;17.09;37.66
17521;BME280;8878;-33.370;-70.552;2023-05-08T00:07:20;92285.16;;;17.21;37.37
17521;BME280;8878;-33.370;-70.552;2023-05-08T00:09:49;92274.50;;;17.21;37.18
17521;BME280;8878;-33.370;-70.552;2023-05-08T00:12:19;92268.94;;;17.32;36.90
17521;BME280;8878;-33.370;-70.552;2023-05-08T00:14:48;92260.44;;;17.30;37.08
17521;BME280;8878;-33.370;-70.552;2023-05-08T00:17:18;92268.38;;;17.21;36.71
17521;BME280;8878;-33.370;-70.552;2023-05-08T00:19:49;92258.09;;;17.28;36.69
17521;BME280;8878;-33.370;-70.552;2023-05-08T00:22:18;92255.72;;;17.27;36.79
17521;BME280;8878;-33.370;-70.552;2023-05-08T00:24:48;92254.19;;;17.34;37.46
17521;BME280;8878;-33.370;-70.552;2023-05-08T00:27:17;92250.94;;;17.37;37.41
17521;BME280;8878;-33.370;-70.552;2023-05-08T00:29:48;92254.16;;;17.26;37.35
17521;BME280;8878;-33.370;-70.552;2023-05-08T00:32:18;92255.13;;;17.07;37.42
17521;BME280;8878;-33.370;-70.552;2023-05-08T00:34:49;92259.22;;;16.91;37.71
17521;BME280;8878;-33.370;-70.552;2023-05-08T00:37:18;92254.41;;;16.79;38.24
17521;BME280;8878;-33.370;-70.552;2023-05-08T00:39:48;92250.59;;;16.72;38.56
17521;BME280;8878;-33.370;-70.552;2023-05-08T00:42:17;92252.66;;;16.75;39.21
17521;BME280;8878;-33.370;-70.552;2023-05-08T00:44:46;92246.25;;;16.49;38.76
17521;BME280;8878;-33.370;-70.552;2023-05-08T00:47:16;92247.19;;;16.30;39.50
17521;BME280;8878;-33.370;-70.552;2023-05-08T00:49:47;92238.00;;;16.36;39.62
17521;BME280;8878;-33.370;-70.552;2023-05-08T00:52:18;92243.03;;;16.38;40.08
17521;BME280;8878;-33.370;-70.552;2023-05-08T00:54:47;92244.53;;;16.30;39.82
17521;BME280;8878;-33.370;-70.552;2023-05-08T00:57:18;92237.63;;;16.16;40.21
17521;BME280;8878;-33.370;-70.552;2023-05-08T00:59:48;92238.56;;;15.97;40.05
17521;BME280;8878;-33.370;-70.552;2023-05-08T01:02:18;92227.97;;;16.06;37.96
17521;BME280;8878;-33.370;-70.552;2023-05-08T01:04:50;92219.09;;;16.24;39.67
17521;BME280;8878;-33.370;-70.552;2023-05-08T01:07:21;92221.88;;;16.19;40.41
17521;BME280;8878;-33.370;-70.552;2023-05-08T01:09:51;92216.16;;;16.12;40.36
17521;BME280;8878;-33.370;-70.552;2023-05-08T01:12:25;92218.84;;;16.12;39.86
17521;BME280;8878;-33.370;-70.552;2023-05-08T01:15:07;92224.44;;;16.24;39.11
17521;BME280;8878;-33.370;-70.552;2023-05-08T01:17:49;92223.72;;;16.32;39.86
17521;BME280;8878;-33.370;-70.552;2023-05-08T01:20:34;92219.28;;;16.28;39.85
17521;BME280;8878;-33.370;-70.552;2023-05-08T01:23:40;92235.47;;;16.18;39.95
17521;BME280;8878;-33.370;-70.552;2023-05-08T01:26:52;92234.88;;;16.07;39.75
17521;BME280;8878;-33.370;-70.552;2023-05-08T01:29:50;92240.81;;;16.04;39.24
17521;BME280;8878;-33.370;-70.552;2023-05-08T01:32:26;92238.63;;;16.20;38.37
17521;BME280;8878;-33.370;-70.552;2023-05-08T01:35:02;92243.88;;;16.11;39.00
17521;BME280;8878;-33.370;-70.552;2023-05-08T01:37:39;92246.31;;;15.94;40.08
17521;BME280;8878;-33.370;-70.552;2023-05-08T01:40:18;92242.47;;;16.00;39.67
17521;BME280;8878;-33.370;-70.552;2023-05-08T01:42:56;92240.22;;;16.07;38.91
17521;BME280;8878;-33.370;-70.552;2023-05-08T01:45:31;92236.47;;;16.08;39.92
17521;BME280;8878;-33.370;-70.552;2023-05-08T01:48:08;92233.31;;;15.92;39.37
17521;BME280;8878;-33.370;-70.552;2023-05-08T01:50:48;92236.75;;;15.79;39.81
17521;BME280;8878;-33.370;-70.552;2023-05-08T01:53:24;92228.38;;;15.86;39.50
17521;BME280;8878;-33.370;-70.552;2023-05-08T01:55:59;92228.38;;;15.72;38.52
17521;BME280;8878;-33.370;-70.552;2023-05-08T01:58:30;92231.44;;;15.65;38.56
17521;BME280;8878;-33.370;-70.552;2023-05-08T02:01:02;92227.19;;;15.78;37.98
17521;BME280;8878;-33.370;-70.552;2023-05-08T02:03:34;92223.56;;;15.88;37.95
17521;BME280;8878;-33.370;-70.552;2023-05-08T02:06:06;92224.47;;;15.97;37.76
17521;BME280;8878;-33.370;-70.552;2023-05-08T02:08:37;92217.44;;;16.01;37.29
17521;BME280;8878;-33.370;-70.552;2023-05-08T02:11:06;92221.78;;;15.97;37.80
17521;BME280;8878;-33.370;-70.552;2023-05-08T02:13:38;92214.22;;;15.90;38.27
17521;BME280;8878;-33.370;-70.552;2023-05-08T02:16:10;92225.44;;;15.87;38.55
17521;BME280;8878;-33.370;-70.552;2023-05-08T02:18:43;92221.41;;;15.90;38.41
17521;BME280;8878;-33.370;-70.552;2023-05-08T02:21:15;92219.31;;;15.73;38.81
17521;BME280;8878;-33.370;-70.552;2023-05-08T02:23:46;92223.66;;;15.69;39.25
17521;BME280;8878;-33.370;-70.552;2023-05-08T02:26:16;92218.13;;;15.65;39.19
17521;BME280;8878;-33.370;-70.552;2023-05-08T02:28:48;92231.53;;;15.60;39.84
17521;BME280;8878;-33.370;-70.552;2023-05-08T02:31:19;92228.53;;;15.48;39.48
17521;BME280;8878;-33.370;-70.552;2023-05-08T02:33:51;92225.56;;;15.50;38.97
17521;BME280;8878;-33.370;-70.552;2023-05-08T02:36:22;92225.63;;;15.31;37.36
17521;BME280;8878;-33.370;-70.552;2023-05-08T02:38:53;92233.03;;;15.34;36.90
17521;BME280;8878;-33.370;-70.552;2023-05-08T02:41:27;92219.81;;;15.61;37.31
17521;BME280;8878;-33.370;-70.552;2023-05-08T02:43:58;92220.09;;;15.74;36.28
17521;BME280;8878;-33.370;-70.552;2023-05-08T02:46:35;92219.13;;;15.83;36.36
17521;BME280;8878;-33.370;-70.552;2023-05-08T02:49:15;92226.22;;;15.88;36.82
17521;BME280;8878;-33.370;-70.552;2023-05-08T02:51:56;92228.38;;;15.86;37.09
17521;BME280;8878;-33.370;-70.552;2023-05-08T02:54:35;92232.34;;;15.75;37.33
17521;BME280;8878;-33.370;-70.552;2023-05-08T02:57:17;92233.50;;;15.69;37.78
17521;BME280;8878;-33.370;-70.552;2023-05-08T02:59:58;92219.88;;;15.56;36.85
17521;BME280;8878;-33.370;-70.552;2023-05-08T03:02:32;92220.50;;;15.53;36.87
17521;BME280;8878;-33.370;-70.552;2023-05-08T03:05:10;92215.69;;;15.55;38.02
17521;BME280;8878;-33.370;-70.552;2023-05-08T03:07:44;92228.28;;;15.31;37.96
17521;BME280;8878;-33.370;-70.552;2023-05-08T03:10:15;92218.22;;;15.28;37.08
17521;BME280;8878;-33.370;-70.552;2023-05-08T03:12:50;92213.72;;;15.42;36.05
17521;BME280;8878;-33.370;-70.552;2023-05-08T03:15:26;92211.72;;;15.66;36.31
17521;BME280;8878;-33.370;-70.552;2023-05-08T03:17:59;92209.56;;;15.69;37.51
17521;BME280;8878;-33.370;-70.552;2023-05-08T03:20:36;92209.19;;;15.61;38.04
17521;BME280;8878;-33.370;-70.552;2023-05-08T03:23:08;92211.22;;;15.64;37.00
17521;BME280;8878;-33.370;-70.552;2023-05-08T03:25:40;92212.91;;;15.60;37.80
17521;BME280;8878;-33.370;-70.552;2023-05-08T03:28:11;92201.16;;;15.48;37.24
17521;BME280;8878;-33.370;-70.552;2023-05-08T03:30:41;92211.97;;;15.38;37.66
17521;BME280;8878;-33.370;-70.552;2023-05-08T03:33:12;92210.19;;;15.01;37.08
17521;BME280;8878;-33.370;-70.552;2023-05-08T03:35:45;92207.16;;;15.07;37.61
17521;BME280;8878;-33.370;-70.552;2023-05-08T03:38:15;92202.44;;;15.04;36.87
17521;BME280;8878;-33.370;-70.552;2023-05-08T03:40:45;92211.91;;;15.10;37.64
17521;BME280;8878;-33.370;-70.552;2023-05-08T03:43:15;92218.09;;;15.06;37.70
17521;BME280;8878;-33.370;-70.552;2023-05-08T03:45:45;92220.75;;;15.06;38.11
17521;BME280;8878;-33.370;-70.552;2023-05-08T03:48:16;92217.91;;;14.83;38.33
17521;BME280;8878;-33.370;-70.552;2023-05-08T03:50:50;92220.88;;;14.82;37.76
17521;BME280;8878;-33.370;-70.552;2023-05-08T03:53:19;92222.88;;;14.71;37.74
17521;BME280;8878;-33.370;-70.552;2023-05-08T03:55:49;92224.31;;;14.82;37.26
17521;BME280;8878;-33.370;-70.552;2023-05-08T03:58:23;92224.03;;;14.84;39.13
17521;BME280;8878;-33.370;-70.552;2023-05-08T04:01:02;92230.28;;;14.74;38.14
17521;BME280;8878;-33.370;-70.552;2023-05-08T04:03:45;92233.34;;;14.81;38.14
17521;BME280;8878;-33.370;-70.552;2023-05-08T04:06:26;92234.59;;;14.70;39.77
17521;BME280;8878;-33.370;-70.552;2023-05-08T04:09:05;92239.31;;;14.73;39.22
17521;BME280;8878;-33.370;-70.552;2023-05-08T04:11:41;92230.28;;;14.74;39.07
17521;BME280;8878;-33.370;-70.552;2023-05-08T04:14:17;92230.28;;;14.74;37.74
17521;BME280;8878;-33.370;-70.552;2023-05-08T04:16:50;92234.38;;;14.67;36.06
17521;BME280;8878;-33.370;-70.552;2023-05-08T04:19:22;92238.66;;;14.81;35.77
17521;BME280;8878;-33.370;-70.552;2023-05-08T04:21:57;92243.47;;;14.98;36.94
17521;BME280;8878;-33.370;-70.552;2023-05-08T04:24:28;92243.22;;;14.95;39.16
17521;BME280;8878;-33.370;-70.552;2023-05-08T04:26:59;92238.09;;;14.84;38.36
17521;BME280;8878;-33.370;-70.552;2023-05-08T04:29:29;92244.16;;;14.85;39.44
17521;BME280;8878;-33.370;-70.552;2023-05-08T04:32:01;92243.47;;;14.79;39.86
17521;BME280;8878;-33.370;-70.552;2023-05-08T04:34:33;92238.63;;;14.49;38.14
17521;BME280;8878;-33.370;-70.552;2023-05-08T04:37:06;92244.72;;;14.68;38.80
17521;BME280;8878;-33.370;-70.552;2023-05-08T04:39:35;92234.78;;;14.74;38.47
17521;BME280;8878;-33.370;-70.552;2023-05-08T04:42:05;92228.91;;;14.77;38.57
17521;BME280;8878;-33.370;-70.552;2023-05-08T04:44:34;92232.56;;;14.81;38.61
17521;BME280;8878;-33.370;-70.552;2023-05-08T04:47:04;92234.47;;;14.94;37.44
17521;BME280;8878;-33.370;-70.552;2023-05-08T04:49:33;92242.16;;;14.96;38.25
17521;BME280;8878;-33.370;-70.552;2023-05-08T04:52:04;92235.34;;;14.89;38.55
17521;BME280;8878;-33.370;-70.552;2023-05-08T04:54:34;92243.97;;;14.81;37.21
17521;BME280;8878;-33.370;-70.552;2023-05-08T04:57:03;92245.28;;;14.84;38.24
17521;BME280;8878;-33.370;-70.552;2023-05-08T04:59:33;92250.16;;;14.77;39.42
17521;BME280;8878;-33.370;-70.552;2023-05-08T05:02:02;92245.22;;;14.70;39.02
17521;BME280;8878;-33.370;-70.552;2023-05-08T05:04:34;92245.34;;;14.60;37.60
17521;BME280;8878;-33.370;-70.552;2023-05-08T05:07:06;92250.78;;;14.50;38.12
17521;BME280;8878;-33.370;-70.552;2023-05-08T05:09:35;92259.50;;;14.56;38.19
17521;BME280;8878;-33.370;-70.552;2023-05-08T05:12:05;92258.72;;;14.31;38.17
17521;BME280;8878;-33.370;-70.552;2023-05-08T05:14:35;92266.41;;;14.33;37.22
17521;BME280;8878;-33.370;-70.552;2023-05-08T05:17:05;92268.56;;;14.49;36.74
17521;BME280;8878;-33.370;-70.552;2023-05-08T05:19:35;92264.41;;;14.43;39.19
17521;BME280;8878;-33.370;-70.552;2023-05-08T05:22:06;92266.16;;;14.29;39.88
17521;BME280;8878;-33.370;-70.552;2023-05-08T05:24:35;92277.72;;;14.20;40.09
17521;BME280;8878;-33.370;-70.552;2023-05-08T05:27:05;92278.63;;;14.10;40.24
17521;BME280;8878;-33.370;-70.552;2023-05-08T05:29:35;92274.88;;;14.11;39.32
17521;BME280;8878;-33.370;-70.552;2023-05-08T05:32:04;92287.88;;;14.13;39.57
17521;BME280;8878;-33.370;-70.552;2023-05-08T05:34:36;92285.38;;;14.21;39.05
17521;BME280;8878;-33.370;-70.552;2023-05-08T05:37:07;92287.03;;;14.17;39.02
17521;BME280;8878;-33.370;-70.552;2023-05-08T05:39:36;92294.69;;;14.19;39.11
17521;BME280;8878;-33.370;-70.552;2023-05-08T05:42:08;92291.53;;;14.17;39.29
17521;BME280;8878;-33.370;-70.552;2023-05-08T05:44:38;92286.34;;;13.83;38.00
17521;BME280;8878;-33.370;-70.552;2023-05-08T05:47:08;92273.81;;;13.88;37.09
17521;BME280;8878;-33.370;-70.552;2023-05-08T05:49:37;92278.44;;;14.01;37.73
17521;BME280;8878;-33.370;-70.552;2023-05-08T05:52:10;92265.78;;;14.17;37.15
17521;BME280;8878;-33.370;-70.552;2023-05-08T05:54:40;92260.06;;;14.29;36.25
17521;BME280;8878;-33.370;-70.552;2023-05-08T05:57:09;92256.25;;;14.40;36.07
17521;BME280;8878;-33.370;-70.552;2023-05-08T05:59:39;92247.13;;;14.46;35.13
17521;BME280;8878;-33.370;-70.552;2023-05-08T06:02:09;92245.47;;;14.50;34.51
17521;BME280;8878;-33.370;-70.552;2023-05-08T06:04:44;92240.03;;;14.60;34.02
17521;BME280;8878;-33.370;-70.552;2023-05-08T06:07:15;92236.81;;;14.63;34.30
17521;BME280;8878;-33.370;-70.552;2023-05-08T06:09:46;92240.47;;;14.67;33.62
17521;BME280;8878;-33.370;-70.552;2023-05-08T06:12:17;92223.38;;;14.73;33.73
17521;BME280;8878;-33.370;-70.552;2023-05-08T06:14:46;92229.28;;;14.70;33.97
17521;BME280;8878;-33.370;-70.552;2023-05-08T06:17:17;92221.59;;;14.69;34.35
17521;BME280;8878;-33.370;-70.552;2023-05-08T06:19:47;92217.50;;;14.58;34.70
17521;BME280;8878;-33.370;-70.552;2023-05-08T06:22:21;92214.13;;;14.52;35.21
17521;BME280;8878;-33.370;-70.552;2023-05-08T06:24:51;92217.50;;;14.39;34.92
17521;BME280;8878;-33.370;-70.552;2023-05-08T06:27:21;92205.75;;;14.02;35.05
17521;BME280;8878;-33.370;-70.552;2023-05-08T06:29:51;92212.28;;;13.91;35.42
17521;BME280;8878;-33.370;-70.552;2023-05-08T06:32:20;92215.16;;;13.71;35.01
17521;BME280;8878;-33.370;-70.552;2023-05-08T06:34:50;92221.53;;;13.70;35.55
17521;BME280;8878;-33.370;-70.552;2023-05-08T06:37:21;92216.72;;;13.72;36.00
17521;BME280;8878;-33.370;-70.552;2023-05-08T06:39:50;92222.59;;;13.69;35.79
17521;BME280;8878;-33.370;-70.552;2023-05-08T06:42:20;92215.66;;;13.97;35.97
17521;BME280;8878;-33.370;-70.552;2023-05-08T06:44:49;92220.47;;;14.14;35.19
17521;BME280;8878;-33.370;-70.552;2023-05-08T06:47:19;92218.31;;;14.16;37.02
17521;BME280;8878;-33.370;-70.552;2023-05-08T06:49:49;92216.69;;;14.20;38.96
17521;BME280;8878;-33.370;-70.552;2023-05-08T06:52:21;92219.78;;;14.27;38.12
17521;BME280;8878;-33.370;-70.552;2023-05-08T06:54:51;92221.56;;;14.13;39.37
17521;BME280;8878;-33.370;-70.552;2023-05-08T06:57:21;92214.94;;;14.10;38.88
17521;BME280;8878;-33.370;-70.552;2023-05-08T06:59:52;92213.84;;;13.92;39.27
17521;BME280;8878;-33.370;-70.552;2023-05-08T07:02:22;92210.16;;;13.88;39.06
17521;BME280;8878;-33.370;-70.552;2023-05-08T07:04:51;92208.22;;;13.75;40.09
17521;BME280;8878;-33.370;-70.552;2023-05-08T07:07:23;92208.31;;;13.65;40.30
17521;BME280;8878;-33.370;-70.552;2023-05-08T07:09:52;92194.59;;;13.82;38.73
17521;BME280;8878;-33.370;-70.552;2023-05-08T07:12:22;92189.13;;;13.97;37.30
17521;BME280;8878;-33.370;-70.552;2023-05-08T07:14:52;92191.34;;;14.08;34.88
17521;BME280;8878;-33.370;-70.552;2023-05-08T07:17:22;92191.75;;;14.21;35.64
17521;BME280;8878;-33.370;-70.552;2023-05-08T07:19:53;92190.63;;;14.22;37.55
17521;BME280;8878;-33.370;-70.552;2023-05-08T07:22:25;92188.69;;;14.08;38.25
17521;BME280;8878;-33.370;-70.552;2023-05-08T07:24:55;92188.00;;;13.79;38.04
17521;BME280;8878;-33.370;-70.552;2023-05-08T07:27:24;92185.31;;;13.84;36.21
17521;BME280;8878;-33.370;-70.552;2023-05-08T07:29:54;92181.97;;;13.97;36.45
17521;BME280;8878;-33.370;-70.552;2023-05-08T07:32:24;92179.50;;;14.01;37.34
17521;BME280;8878;-33.370;-70.552;2023-05-08T07:34:53;92167.03;;;14.01;34.88
17521;BME280;8878;-33.370;-70.552;2023-05-08T07:37:24;92171.72;;;14.09;36.70
17521;BME280;8878;-33.370;-70.552;2023-05-08T07:39:55;92174.59;;;14.13;37.18
17521;BME280;8878;-33.370;-70.552;2023-05-08T07:42:25;92174.88;;;14.11;36.85
17521;BME280;8878;-33.370;-70.552;2023-05-08T07:44:54;92161.72;;;14.01;37.46
17521;BME280;8878;-33.370;-70.552;2023-05-08T07:47:24;92157.66;;;13.90;37.25
17521;BME280;8878;-33.370;-70.552;2023-05-08T07:49:57;92155.78;;;13.91;36.63
17521;BME280;8878;-33.370;-70.552;2023-05-08T07:52:28;92160.75;;;13.97;36.81
17521;BME280;8878;-33.370;-70.552;2023-05-08T07:54:57;92160.38;;;14.04;36.75
17521;BME280;8878;-33.370;-70.552;2023-05-08T07:57:27;92164.75;;;13.95;37.55
17521;BME280;8878;-33.370;-70.552;2023-05-08T08:00:00;92153.34;;;13.94;36.95
17521;BME280;8878;-33.370;-70.552;2023-05-08T08:02:30;92152.69;;;13.84;37.37
17521;BME280;8878;-33.370;-70.552;2023-05-08T08:05:00;92165.44;;;13.82;37.38
17521;BME280;8878;-33.370;-70.552;2023-05-08T08:07:31;92157.72;;;13.85;37.30
17521;BME280;8878;-33.370;-70.552;2023-05-08T08:10:01;92155.00;;;13.90;36.89
17521;BME280;8878;-33.370;-70.552;2023-05-08T08:12:32;92154.28;;;13.85;36.30
17521;BME280;8878;-33.370;-70.552;2023-05-08T08:15:01;92158.63;;;13.76;37.27
17521;BME280;8878;-33.370;-70.552;2023-05-08T08:17:31;92157.56;;;13.77;37.36
17521;BME280;8878;-33.370;-70.552;2023-05-08T08:20:01;92152.59;;;13.70;37.35
17521;BME280;8878;-33.370;-70.552;2023-05-08T08:22:32;92159.78;;;13.69;37.16
17521;BME280;8878;-33.370;-70.552;2023-05-08T08:25:02;92159.97;;;13.73;36.17
17521;BME280;8878;-33.370;-70.552;2023-05-08T08:27:31;92154.47;;;13.88;35.24
17521;BME280;8878;-33.370;-70.552;2023-05-08T08:30:01;92162.25;;;14.22;35.34
17521;BME280;8878;-33.370;-70.552;2023-05-08T08:32:30;92165.97;;;14.21;36.82
17521;BME280;8878;-33.370;-70.552;2023-05-08T08:35:00;92169.41;;;14.22;36.32
17521;BME280;8878;-33.370;-70.552;2023-05-08T08:37:31;92165.06;;;14.12;36.85
17521;BME280;8878;-33.370;-70.552;2023-05-08T08:40:02;92170.63;;;14.10;36.43
17521;BME280;8878;-33.370;-70.552;2023-05-08T08:42:31;92164.19;;;13.98;37.13
17521;BME280;8878;-33.370;-70.552;2023-05-08T08:45:01;92166.41;;;13.91;37.17
17521;BME280;8878;-33.370;-70.552;2023-05-08T08:47:35;92161.44;;;13.84;36.37
17521;BME280;8878;-33.370;-70.552;2023-05-08T08:50:08;92162.81;;;14.00;36.69
17521;BME280;8878;-33.370;-70.552;2023-05-08T08:52:44;92165.84;;;14.13;38.15
17521;BME280;8878;-33.370;-70.552;2023-05-08T08:55:16;92160.75;;;14.16;39.27
17521;BME280;8878;-33.370;-70.552;2023-05-08T08:57:54;92146.31;;;14.03;39.82
17521;BME280;8878;-33.370;-70.552;2023-05-08T09:00:29;92157.41;;;13.87;38.91
17521;BME280;8878;-33.370;-70.552;2023-05-08T09:02:59;92152.81;;;13.73;40.07
17521;BME280;8878;-33.370;-70.552;2023-05-08T09:05:29;92146.50;;;13.69;39.28
17521;BME280;8878;-33.370;-70.552;2023-05-08T09:08:02;92144.84;;;13.73;38.70
17521;BME280;8878;-33.370;-70.552;2023-05-08T09:10:34;92146.16;;;13.76;38.99
17521;BME280;8878;-33.370;-70.552;2023-05-08T09:13:03;92153.75;;;13.64;39.20
17521;BME280;8878;-33.370;-70.552;2023-05-08T09:15:33;92145.84;;;13.59;38.12
17521;BME280;8878;-33.370;-70.552;2023-05-08T09:18:02;92145.38;;;13.52;37.78
17521;BME280;8878;-33.370;-70.552;2023-05-08T09:20:32;92146.41;;;13.56;38.09
17521;BME280;8878;-33.370;-70.552;2023-05-08T09:23:04;92136.28;;;13.58;37.12
17521;BME280;8878;-33.370;-70.552;2023-05-08T09:25:43;92136.94;;;13.50;37.41
17521;BME280;8878;-33.370;-70.552;2023-05-08T09:28:17;92135.38;;;13.49;36.42
17521;BME280;8878;-33.370;-70.552;2023-05-08T09:30:51;92131.06;;;13.53;36.46
17521;BME280;8878;-33.370;-70.552;2023-05-08T09:33:22;92130.50;;;13.56;32.74
17521;BME280;8878;-33.370;-70.552;2023-05-08T09:35:52;92136.97;;;13.68;33.40
17521;BME280;8878;-33.370;-70.552;2023-05-08T09:38:38;92125.16;;;13.80;34.25
17521;BME280;8878;-33.370;-70.552;2023-05-08T09:41:09;92132.84;;;13.81;34.38
17521;BME280;8878;-33.370;-70.552;2023-05-08T09:43:40;92132.75;;;13.67;34.65
17521;BME280;8878;-33.370;-70.552;2023-05-08T09:46:20;92133.78;;;13.48;35.00
17521;BME280;8878;-33.370;-70.552;2023-05-08T09:48:50;92138.06;;;13.44;35.02
17521;BME280;8878;-33.370;-70.552;2023-05-08T09:51:21;92129.97;;;13.35;34.08
17521;BME280;8878;-33.370;-70.552;2023-05-08T09:53:52;92138.72;;;13.36;34.07
17521;BME280;8878;-33.370;-70.552;2023-05-08T09:56:32;92141.38;;;13.30;35.50
17521;BME280;8878;-33.370;-70.552;2023-05-08T09:59:03;92130.63;;;13.46;35.68
17521;BME280;8878;-33.370;-70.552;2023-05-08T10:01:34;92142.81;;;13.47;34.88
17521;BME280;8878;-33.370;-70.552;2023-05-08T10:04:06;92149.91;;;13.27;32.27
17521;BME280;8878;-33.370;-70.552;2023-05-08T10:06:36;92147.59;;;13.68;33.80
17521;BME280;8878;-33.370;-70.552;2023-05-08T10:09:11;92149.81;;;13.80;33.10
17521;BME280;8878;-33.370;-70.552;2023-05-08T10:11:48;92155.97;;;13.76;35.13
17521;BME280;8878;-33.370;-70.552;2023-05-08T10:14:18;92151.41;;;13.57;35.29
17521;BME280;8878;-33.370;-70.552;2023-05-08T10:16:48;92157.38;;;13.49;34.93
17521;BME280;8878;-33.370;-70.552;2023-05-08T10:19:19;92161.72;;;13.59;33.12
17521;BME280;8878;-33.370;-70.552;2023-05-08T10:21:51;92162.63;;;13.73;31.15
17521;BME280;8878;-33.370;-70.552;2023-05-08T10:24:27;92166.78;;;13.79;33.54
17521;BME280;8878;-33.370;-70.552;2023-05-08T10:27:03;92165.16;;;13.83;33.61
17521;BME280;8878;-33.370;-70.552;2023-05-08T10:29:41;92169.69;;;13.83;32.89
17521;BME280;8878;-33.370;-70.552;2023-05-08T10:32:18;92172.75;;;13.90;32.28
17521;BME280;8878;-33.370;-70.552;2023-05-08T10:34:52;92177.16;;;13.99;32.25
17521;BME280;8878;-33.370;-70.552;2023-05-08T10:37:24;92170.19;;;14.03;31.07
17521;BME280;8878;-33.370;-70.552;2023-05-08T10:39:59;92175.66;;;14.12;30.33
17521;BME280;8878;-33.370;-70.552;2023-05-08T10:42:29;92179.75;;;14.04;32.83
17521;BME280;8878;-33.370;-70.552;2023-05-08T10:44:59;92184.03;;;14.00;32.41
17521;BME280;8878;-33.370;-70.552;2023-05-08T10:47:38;92186.19;;;13.98;32.52
17521;BME280;8878;-33.370;-70.552;2023-05-08T10:50:18;92183.09;;;13.91;33.40
17521;BME280;8878;-33.370;-70.552;2023-05-08T10:52:56;92181.63;;;13.80;33.65
17521;BME280;8878;-33.370;-70.552;2023-05-08T10:55:30;92178.66;;;13.63;32.51
17521;BME280;8878;-33.370;-70.552;2023-05-08T10:58:04;92182.63;;;13.42;31.90
17521;BME280;8878;-33.370;-70.552;2023-05-08T11:01:13;92189.38;;;13.53;31.47
17521;BME280;8878;-33.370;-70.552;2023-05-08T11:03:44;92195.72;;;13.57;33.71
17521;BME280;8878;-33.370;-70.552;2023-05-08T11:06:14;92194.75;;;13.48;34.00
17521;BME280;8878;-33.370;-70.552;2023-05-08T11:08:46;92196.78;;;13.56;33.87
17521;BME280;8878;-33.370;-70.552;2023-05-08T11:11:28;92196.81;;;13.51;33.50
17521;BME280;8878;-33.370;-70.552;2023-05-08T11:14:10;92199.44;;;13.56;34.28
17521;BME280;8878;-33.370;-70.552;2023-05-08T11:17:05;92197.31;;;13.53;34.48
17521;BME280;8878;-33.370;-70.552;2023-05-08T11:19:36;92207.41;;;13.51;34.55
17521;BME280;8878;-33.370;-70.552;2023-05-08T11:22:27;92206.63;;;13.50;34.79
17521;BME280;8878;-33.370;-70.552;2023-05-08T11:25:01;92205.63;;;13.46;34.82
17521;BME280;8878;-33.370;-70.552;2023-05-08T11:30:40;92209.72;;;13.33;34.22
17521;BME280;8878;-33.370;-70.552;2023-05-08T11:33:14;92214.97;;;13.39;34.94
17521;BME280;8878;-33.370;-70.552;2023-05-08T11:35:49;92217.69;;;13.33;34.32
17521;BME280;8878;-33.370;-70.552;2023-05-08T11:38:28;92217.00;;;13.47;33.63
17521;BME280;8878;-33.370;-70.552;2023-05-08T11:40:59;92212.69;;;13.56;33.25
17521;BME280;8878;-33.370;-70.552;2023-05-08T11:44:00;92209.28;;;13.50;31.61
17521;BME280;8878;-33.370;-70.552;2023-05-08T11:46:39;92213.59;;;13.70;30.38
17521;BME280;8878;-33.370;-70.552;2023-05-08T11:49:14;92206.09;;;13.96;30.75
17521;BME280;8878;-33.370;-70.552;2023-05-08T11:51:47;92205.28;;;14.19;29.23
17521;BME280;8878;-33.370;-70.552;2023-05-08T11:54:18;92201.13;;;14.32;30.42
17521;BME280;8878;-33.370;-70.552;2023-05-08T11:56:48;92204.84;;;14.31;29.81
17521;BME280;8878;-33.370;-70.552;2023-05-08T11:59:18;92205.22;;;14.43;27.91
17521;BME280;8878;-33.370;-70.552;2023-05-08T12:01:50;92207.19;;;14.56;26.41
17521;BME280;8878;-33.370;-70.552;2023-05-08T12:04:20;92203.44;;;14.76;26.83
17521;BME280;8878;-33.370;-70.552;2023-05-08T12:06:49;92197.56;;;14.93;26.75
17521;BME280;8878;-33.370;-70.552;2023-05-08T12:09:25;92204.06;;;15.19;27.17
17521;BME280;8878;-33.370;-70.552;2023-05-08T12:11:56;92207.59;;;15.28;28.49
17521;BME280;8878;-33.370;-70.552;2023-05-08T12:14:26;92206.66;;;15.38;28.00
17521;BME280;8878;-33.370;-70.552;2023-05-08T12:16:57;92198.88;;;15.41;27.82
17521;BME280;8878;-33.370;-70.552;2023-05-08T12:19:26;92202.69;;;15.35;27.58
17521;BME280;8878;-33.370;-70.552;2023-05-08T12:21:56;92200.94;;;15.44;27.49
17521;BME280;8878;-33.370;-70.552;2023-05-08T12:24:26;92191.00;;;15.50;26.24
17521;BME280;8878;-33.370;-70.552;2023-05-08T12:26:55;92199.91;;;15.73;25.38
17521;BME280;8878;-33.370;-70.552;2023-05-08T12:29:25;92212.81;;;15.93;24.99
17521;BME280;8878;-33.370;-70.552;2023-05-08T12:31:56;92217.16;;;16.02;25.72
17521;BME280;8878;-33.370;-70.552;2023-05-08T12:34:26;92221.88;;;16.19;25.31
17521;BME280;8878;-33.370;-70.552;2023-05-08T12:37:02;92222.25;;;16.40;25.74
17521;BME280;8878;-33.370;-70.552;2023-05-08T12:39:35;92228.13;;;16.51;28.16
17521;BME280;8878;-33.370;-70.552;2023-05-08T12:42:05;92226.97;;;16.29;26.70
17521;BME280;8878;-33.370;-70.552;2023-05-08T12:44:34;92230.78;;;16.64;25.91
17521;BME280;8878;-33.370;-70.552;2023-05-08T12:47:05;92236.34;;;16.90;27.80
17521;BME280;8878;-33.370;-70.552;2023-05-08T12:49:35;92241.34;;;16.92;27.03
17521;BME280;8878;-33.370;-70.552;2023-05-08T12:52:07;92237.72;;;16.88;26.11
17521;BME280;8878;-33.370;-70.552;2023-05-08T12:54:37;92241.78;;;17.07;25.33
17521;BME280;8878;-33.370;-70.552;2023-05-08T12:57:09;92244.47;;;17.30;24.95
17521;BME280;8878;-33.370;-70.552;2023-05-08T12:59:39;92242.38;;;17.49;24.99
17521;BME280;8878;-33.370;-70.552;2023-05-08T13:02:15;92246.47;;;17.55;27.92
17521;BME280;8878;-33.370;-70.552;2023-05-08T13:04:45;92236.59;;;17.55;29.77
17521;BME280;8878;-33.370;-70.552;2023-05-08T13:07:14;92243.78;;;17.46;26.12
17521;BME280;8878;-33.370;-70.552;2023-05-08T13:09:57;92242.00;;;17.64;25.69
17521;BME280;8878;-33.370;-70.552;2023-05-08T13:12:28;92234.59;;;17.92;23.84